sensor_id;sensor_type;location;lat;lon;timestamp;pressure;altitude;pressure_sealevel;temperature;humidity
67377;BME280;54261;46.086;6.588;2023-02-19T00:03:16;93456.91;;;4.99;43.75
67377;BME280;54261;46.086;6.588;2023-02-19T00:08:18;93451.69;;;6.09;42.50
67377;BME280;54261;46.086;6.588;2023-02-19T00:13:20;93458.34;;;6.64;40.76
67377;BME280;54261;46.086;6.588;2023-02-19T00:18:22;93458.06;;;6.65;40.96
67377;BME280;54261;46.086;6.588;2023-02-19T00:23:24;93448.09;;;7.18;39.31
67377;BME280;54261;46.086;6.588;2023-02-19T00:28:27;93455.13;;;7.64;39.16
67377;BME280;54261;46.086;6.588;2023-02-19T00:33:29;93442.94;;;7.42;38.80
67377;BME280;54261;46.086;6.588;2023-02-19T00:38:34;93454.72;;;7.36;38.51
67377;BME280;54261;46.086;6.588;2023-02-19T00:43:36;93452.97;;;7.66;38.06
67377;BME280;54261;46.086;6.588;2023-02-19T00:48:38;93449.00;;;6.82;38.73
67377;BME280;54261;46.086;6.588;2023-02-19T00:53:41;93445.53;;;7.58;38.39
67377;BME280;54261;46.086;6.588;2023-02-19T00:58:43;93441.56;;;7.50;37.96
67377;BME280;54261;46.086;6.588;2023-02-19T01:03:45;93452.84;;;7.42;38.32
67377;BME280;54261;46.086;6.588;2023-02-19T01:08:47;93439.09;;;6.98;38.20
67377;BME280;54261;46.086;6.588;2023-02-19T01:13:49;93419.84;;;7.12;38.34
67377;BME280;54261;46.086;6.588;2023-02-19T01:18:52;93442.44;;;7.30;38.35
67377;BME280;54261;46.086;6.588;2023-02-19T01:23:55;93419.69;;;6.41;38.79
67377;BME280;54261;46.086;6.588;2023-02-19T01:29:00;93423.94;;;6.73;38.30
67377;BME280;54261;46.086;6.588;2023-02-19T01:34:03;93439.69;;;6.59;39.14
67377;BME280;54261;46.086;6.588;2023-02-19T01:39:05;93426.31;;;6.79;38.72
67377;BME280;54261;46.086;6.588;2023-02-19T01:49:31;93427.31;;;7.09;37.79
67377;BME280;54261;46.086;6.588;2023-02-19T01:54:36;93421.28;;;6.78;37.22
67377;BME280;54261;46.086;6.588;2023-02-19T01:59:41;93418.81;;;6.92;37.71
67377;BME280;54261;46.086;6.588;2023-02-19T02:04:43;93414.00;;;6.94;37.53
67377;BME280;54261;46.086;6.588;2023-02-19T02:09:45;93405.56;;;6.14;38.79
67377;BME280;54261;46.086;6.588;2023-02-19T02:15:06;93413.00;;;6.85;38.57
67377;BME280;54261;46.086;6.588;2023-02-19T02:30:42;93418.19;;;7.26;37.45
67377;BME280;54261;46.086;6.588;2023-02-19T02:35:53;93408.19;;;6.61;37.82
67377;BME280;54261;46.086;6.588;2023-02-19T02:40:57;93386.09;;;6.50;37.96
67377;BME280;54261;46.086;6.588;2023-02-19T02:46:00;93401.75;;;6.82;37.59
67377;BME280;54261;46.086;6.588;2023-02-19T02:56:15;93387.13;;;6.49;37.60
67377;BME280;54261;46.086;6.588;2023-02-19T03:01:31;93363.16;;;6.33;37.61
67377;BME280;54261;46.086;6.588;2023-02-19T03:06:54;93374.13;;;6.21;39.02
67377;BME280;54261;46.086;6.588;2023-02-19T03:12:01;93365.50;;;5.36;40.06
67377;BME280;54261;46.086;6.588;2023-02-19T03:17:54;93367.47;;;5.98;39.85
67377;BME280;54261;46.086;6.588;2023-02-19T03:23:17;93352.75;;;6.37;39.07
67377;BME280;54261;46.086;6.588;2023-02-19T03:28:25;93367.69;;;5.50;39.98
67377;BME280;54261;46.086;6.588;2023-02-19T03:33:52;93363.47;;;6.16;39.54
67377;BME280;54261;46.086;6.588;2023-02-19T03:39:02;93362.59;;;6.57;38.47
67377;BME280;54261;46.086;6.588;2023-02-19T03:44:12;93365.31;;;6.16;38.62
67377;BME280;54261;46.086;6.588;2023-02-19T03:54:36;93352.50;;;6.38;38.15
67377;BME280;54261;46.086;6.588;2023-02-19T03:59:46;93355.75;;;6.09;38.59
67377;BME280;54261;46.086;6.588;2023-02-19T04:04:55;93345.06;;;6.20;38.69
67377;BME280;54261;46.086;6.588;2023-02-19T04:10:01;93338.09;;;6.45;37.97
67377;BME280;54261;46.086;6.588;2023-02-19T04:15:11;93342.97;;;5.96;39.19
67377;BME280;54261;46.086;6.588;2023-02-19T04:20:15;93329.53;;;6.53;37.31
67377;BME280;54261;46.086;6.588;2023-02-19T04:25:17;93321.84;;;5.43;39.81
67377;BME280;54261;46.086;6.588;2023-02-19T04:30:20;93324.56;;;5.63;39.14
67377;BME280;54261;46.086;6.588;2023-02-19T04:35:22;93321.34;;;6.08;37.73
67377;BME280;54261;46.086;6.588;2023-02-19T04:40:23;93331.22;;;6.23;37.70
67377;BME280;54261;46.086;6.588;2023-02-19T04:45:26;93326.13;;;6.27;37.21
67377;BME280;54261;46.086;6.588;2023-02-19T04:50:27;93313.88;;;6.20;37.65
67377;BME280;54261;46.086;6.588;2023-02-19T04:55:29;93340.25;;;6.37;37.54
67377;BME280;54261;46.086;6.588;2023-02-19T05:00:31;93320.81;;;6.21;37.36
67377;BME280;54261;46.086;6.588;2023-02-19T05:05:34;93341.06;;;6.12;37.26
67377;BME280;54261;46.086;6.588;2023-02-19T05:10:36;93333.06;;;6.33;37.01
67377;BME280;54261;46.086;6.588;2023-02-19T05:15:38;93347.91;;;5.25;38.47
67377;BME280;54261;46.086;6.588;2023-02-19T05:20:40;93346.69;;;5.90;38.44
67377;BME280;54261;46.086;6.588;2023-02-19T05:25:41;93358.13;;;5.69;38.19
67377;BME280;54261;46.086;6.588;2023-02-19T05:35:47;93359.19;;;6.10;37.63
67377;BME280;54261;46.086;6.588;2023-02-19T05:40:50;93361.34;;;6.18;36.72
67377;BME280;54261;46.086;6.588;2023-02-19T05:45:52;93365.28;;;5.48;37.62
67377;BME280;54261;46.086;6.588;2023-02-19T05:50:53;93374.63;;;6.39;36.82
67377;BME280;54261;46.086;6.588;2023-02-19T05:55:56;93343.75;;;5.81;37.42
67377;BME280;54261;46.086;6.588;2023-02-19T06:00:57;93336.81;;;6.11;36.86
67377;BME280;54261;46.086;6.588;2023-02-19T06:06:02;93346.09;;;6.39;36.71
67377;BME280;54261;46.086;6.588;2023-02-19T06:11:04;93323.22;;;6.23;35.89
67377;BME280;54261;46.086;6.588;2023-02-19T06:16:07;93327.22;;;6.10;36.56
67377;BME280;54261;46.086;6.588;2023-02-19T06:21:10;93329.06;;;6.20;36.37
67377;BME280;54261;46.086;6.588;2023-02-19T06:31:19;93318.09;;;6.37;35.60
67377;BME280;54261;46.086;6.588;2023-02-19T06:36:22;93324.28;;;5.60;37.10
67377;BME280;54261;46.086;6.588;2023-02-19T06:41:24;93328.28;;;5.83;36.44
67377;BME280;54261;46.086;6.588;2023-02-19T06:46:27;93318.47;;;4.68;37.75
67377;BME280;54261;46.086;6.588;2023-02-19T06:51:29;93340.00;;;6.13;36.34
67377;BME280;54261;46.086;6.588;2023-02-19T06:56:35;93318.13;;;6.21;35.92
67377;BME280;54261;46.086;6.588;2023-02-19T07:01:39;93324.28;;;5.60;36.41
67377;BME280;54261;46.086;6.588;2023-02-19T07:06:41;93348.53;;;5.94;36.83
67377;BME280;54261;46.086;6.588;2023-02-19T07:11:43;93369.34;;;6.03;36.61
67377;BME280;54261;46.086;6.588;2023-02-19T07:16:44;93383.03;;;5.27;37.89
67377;BME280;54261;46.086;6.588;2023-02-19T07:21:48;93398.88;;;6.32;36.77
67377;BME280;54261;46.086;6.588;2023-02-19T07:26:49;93403.34;;;6.89;36.40
67377;BME280;54261;46.086;6.588;2023-02-19T07:31:51;93399.50;;;5.13;37.87
67377;BME280;54261;46.086;6.588;2023-02-19T07:36:53;93402.13;;;5.98;37.48
67377;BME280;54261;46.086;6.588;2023-02-19T07:41:56;93394.22;;;7.05;36.65
67377;BME280;54261;46.086;6.588;2023-02-19T07:47:01;93396.44;;;7.48;36.23
67377;BME280;54261;46.086;6.588;2023-02-19T07:52:03;93386.53;;;6.93;36.70
67377;BME280;54261;46.086;6.588;2023-02-19T07:57:04;93416.22;;;7.42;35.70
67377;BME280;54261;46.086;6.588;2023-02-19T08:02:17;93426.69;;;7.84;35.20
67377;BME280;54261;46.086;6.588;2023-02-19T08:07:38;93432.13;;;7.73;35.38
67377;BME280;54261;46.086;6.588;2023-02-19T08:12:41;93442.41;;;7.45;35.12
67377;BME280;54261;46.086;6.588;2023-02-19T08:18:02;93446.69;;;7.41;35.22
67377;BME280;54261;46.086;6.588;2023-02-19T08:23:04;93453.84;;;7.56;35.94
67377;BME280;54261;46.086;6.588;2023-02-19T08:28:07;93452.63;;;7.22;35.47
67377;BME280;54261;46.086;6.588;2023-02-19T08:33:11;93472.47;;;7.72;35.26
67377;BME280;54261;46.086;6.588;2023-02-19T08:38:14;93457.44;;;5.54;37.88
67377;BME280;54261;46.086;6.588;2023-02-19T08:43:17;93467.94;;;5.23;38.50
67377;BME280;54261;46.086;6.588;2023-02-19T08:48:19;93466.38;;;6.43;37.59
67377;BME280;54261;46.086;6.588;2023-02-19T08:53:23;93469.28;;;6.21;37.46
67377;BME280;54261;46.086;6.588;2023-02-19T08:58:25;93468.25;;;4.08;42.19
67377;BME280;54261;46.086;6.588;2023-02-19T09:03:27;93473.25;;;6.13;39.02
67377;BME280;54261;46.086;6.588;2023-02-19T09:08:28;93462.91;;;6.37;38.24
67377;BME280;54261;46.086;6.588;2023-02-19T09:13:30;93465.72;;;5.74;39.15
67377;BME280;54261;46.086;6.588;2023-02-19T09:18:32;93469.53;;;6.92;39.35
67377;BME280;54261;46.086;6.588;2023-02-19T09:23:35;93470.50;;;7.88;38.58
67377;BME280;54261;46.086;6.588;2023-02-19T09:28:37;93439.94;;;6.78;40.11
67377;BME280;54261;46.086;6.588;2023-02-19T09:33:46;93451.16;;;7.56;39.67
67377;BME280;54261;46.086;6.588;2023-02-19T09:38:48;93436.94;;;5.60;42.13
67377;BME280;54261;46.086;6.588;2023-02-19T09:43:50;93453.03;;;6.22;42.48
67377;BME280;54261;46.086;6.588;2023-02-19T09:48:56;93430.19;;;5.32;43.39
67377;BME280;54261;46.086;6.588;2023-02-19T09:54:03;93452.75;;;4.27;45.46
67377;BME280;54261;46.086;6.588;2023-02-19T09:59:18;93447.53;;;7.82;39.22
67377;BME280;54261;46.086;6.588;2023-02-19T10:04:21;93454.47;;;5.46;45.27
67377;BME280;54261;46.086;6.588;2023-02-19T10:09:25;93451.94;;;5.97;44.68
67377;BME280;54261;46.086;6.588;2023-02-19T10:19:35;93460.22;;;5.22;46.93
67377;BME280;54261;46.086;6.588;2023-02-19T10:24:40;93457.19;;;3.94;48.79
67377;BME280;54261;46.086;6.588;2023-02-19T10:29:45;93431.88;;;2.65;53.18
67377;BME280;54261;46.086;6.588;2023-02-19T10:35:11;93460.25;;;3.81;51.97
67377;BME280;54261;46.086;6.588;2023-02-19T10:40:15;93451.91;;;6.91;43.43
67377;BME280;54261;46.086;6.588;2023-02-19T10:45:22;93477.28;;;8.20;41.00
67377;BME280;54261;46.086;6.588;2023-02-19T10:50:34;93481.91;;;9.08;39.76
67377;BME280;54261;46.086;6.588;2023-02-19T10:55:39;93485.25;;;7.80;39.97
67377;BME280;54261;46.086;6.588;2023-02-19T11:00:41;93480.91;;;7.29;41.02
67377;BME280;54261;46.086;6.588;2023-02-19T11:05:53;93467.81;;;5.56;44.02
67377;BME280;54261;46.086;6.588;2023-02-19T11:10:58;93474.16;;;4.91;45.38
67377;BME280;54261;46.086;6.588;2023-02-19T11:16:00;93473.94;;;5.51;45.36
67377;BME280;54261;46.086;6.588;2023-02-19T11:21:05;93463.59;;;8.27;40.46
67377;BME280;54261;46.086;6.588;2023-02-19T11:26:17;93467.06;;;10.46;36.54
67377;BME280;54261;46.086;6.588;2023-02-19T11:36:26;93439.09;;;5.68;43.27
67377;BME280;54261;46.086;6.588;2023-02-19T11:47:00;93434.63;;;6.52;43.34
67377;BME280;54261;46.086;6.588;2023-02-19T11:57:40;93418.94;;;7.37;41.59
67377;BME280;54261;46.086;6.588;2023-02-19T12:08:32;93400.47;;;6.44;44.74
67377;BME280;54261;46.086;6.588;2023-02-19T12:24:19;93385.56;;;4.91;47.61
67377;BME280;54261;46.086;6.588;2023-02-19T12:35:25;93379.97;;;8.45;39.37
67377;BME280;54261;46.086;6.588;2023-02-19T12:46:02;93371.19;;;7.25;43.53
67377;BME280;54261;46.086;6.588;2023-02-19T12:56:35;93365.50;;;10.54;36.60
67377;BME280;54261;46.086;6.588;2023-02-19T13:01:47;93357.00;;;11.36;34.96
67377;BME280;54261;46.086;6.588;2023-02-19T13:07:04;93361.19;;;9.67;37.23
67377;BME280;54261;46.086;6.588;2023-02-19T13:12:13;93350.31;;;8.96;39.23
67377;BME280;54261;46.086;6.588;2023-02-19T13:17:37;93358.69;;;11.03;36.44
67377;BME280;54261;46.086;6.588;2023-02-19T13:23:07;93309.50;;;7.66;41.14
67377;BME280;54261;46.086;6.588;2023-02-19T13:39:23;93355.53;;;12.03;34.68
67377;BME280;54261;46.086;6.588;2023-02-19T13:44:29;93355.13;;;7.75;42.83
67377;BME280;54261;46.086;6.588;2023-02-19T13:54:35;93331.44;;;11.98;35.43
67377;BME280;54261;46.086;6.588;2023-02-19T13:59:40;93329.59;;;12.30;34.22
67377;BME280;54261;46.086;6.588;2023-02-19T14:04:55;93327.94;;;10.82;36.75
67377;BME280;54261;46.086;6.588;2023-02-19T14:09:57;93317.38;;;12.87;33.73
67377;BME280;54261;46.086;6.588;2023-02-19T14:20:42;93324.84;;;10.74;35.99
67377;BME280;54261;46.086;6.588;2023-02-19T14:25:49;93325.03;;;10.03;37.02
67377;BME280;54261;46.086;6.588;2023-02-19T14:30:55;93321.66;;;8.47;40.41
67377;BME280;54261;46.086;6.588;2023-02-19T14:41:05;93305.19;;;10.65;37.38
67377;BME280;54261;46.086;6.588;2023-02-19T14:46:15;93308.34;;;8.42;42.89
67377;BME280;54261;46.086;6.588;2023-02-19T14:51:38;93297.47;;;11.42;38.21
67377;BME280;54261;46.086;6.588;2023-02-19T14:56:43;93301.56;;;11.85;36.45
67377;BME280;54261;46.086;6.588;2023-02-19T15:01:54;93301.16;;;11.69;36.44
67377;BME280;54261;46.086;6.588;2023-02-19T15:07:01;93291.69;;;13.92;33.34
67377;BME280;54261;46.086;6.588;2023-02-19T15:12:04;93261.97;;;12.00;35.39
67377;BME280;54261;46.086;6.588;2023-02-19T15:17:06;93287.03;;;14.10;33.68
67377;BME280;54261;46.086;6.588;2023-02-19T15:22:14;93279.19;;;14.91;31.99
67377;BME280;54261;46.086;6.588;2023-02-19T15:27:21;93288.50;;;13.54;33.49
67377;BME280;54261;46.086;6.588;2023-02-19T15:32:25;93295.09;;;11.64;37.33
67377;BME280;54261;46.086;6.588;2023-02-19T15:37:30;93294.78;;;11.42;39.34
67377;BME280;54261;46.086;6.588;2023-02-19T15:42:34;93298.72;;;10.66;40.32
67377;BME280;54261;46.086;6.588;2023-02-19T15:58:23;93309.38;;;11.50;38.09
67377;BME280;54261;46.086;6.588;2023-02-19T16:03:28;93298.38;;;10.26;40.64
67377;BME280;54261;46.086;6.588;2023-02-19T16:08:34;93259.53;;;10.65;39.83
67377;BME280;54261;46.086;6.588;2023-02-19T16:13:36;93306.13;;;12.22;38.01
67377;BME280;54261;46.086;6.588;2023-02-19T16:18:45;93310.34;;;12.14;37.98
67377;BME280;54261;46.086;6.588;2023-02-19T16:23:52;93290.31;;;11.97;37.65
67377;BME280;54261;46.086;6.588;2023-02-19T16:28:55;93265.97;;;10.22;40.08
67377;BME280;54261;46.086;6.588;2023-02-19T16:34:15;93324.25;;;10.64;40.39
67377;BME280;54261;46.086;6.588;2023-02-19T16:39:19;93321.00;;;11.82;38.07
67377;BME280;54261;46.086;6.588;2023-02-19T16:49:28;93335.06;;;11.79;37.93
67377;BME280;54261;46.086;6.588;2023-02-19T16:54:30;93348.41;;;11.48;38.44
67377;BME280;54261;46.086;6.588;2023-02-19T16:59:32;93347.84;;;9.62;42.50
67377;BME280;54261;46.086;6.588;2023-02-19T17:04:34;93350.69;;;8.84;43.57
67377;BME280;54261;46.086;6.588;2023-02-19T17:09:36;93359.25;;;9.54;43.88
67377;BME280;54261;46.086;6.588;2023-02-19T17:14:37;93364.72;;;10.20;41.97
67377;BME280;54261;46.086;6.588;2023-02-19T17:19:39;93345.19;;;10.47;40.33
67377;BME280;54261;46.086;6.588;2023-02-19T17:24:43;93378.28;;;11.18;40.68
67377;BME280;54261;46.086;6.588;2023-02-19T17:29:44;93392.69;;;10.14;41.79
67377;BME280;54261;46.086;6.588;2023-02-19T17:34:46;93413.41;;;11.08;40.35
67377;BME280;54261;46.086;6.588;2023-02-19T17:39:50;93423.16;;;10.23;41.87
67377;BME280;54261;46.086;6.588;2023-02-19T17:44:52;93401.94;;;11.44;39.00
67377;BME280;54261;46.086;6.588;2023-02-19T17:49:54;93422.13;;;12.20;38.29
67377;BME280;54261;46.086;6.588;2023-02-19T17:54:56;93428.97;;;12.72;36.72
67377;BME280;54261;46.086;6.588;2023-02-19T17:59:59;93431.00;;;12.21;37.37
67377;BME280;54261;46.086;6.588;2023-02-19T18:05:01;93428.00;;;12.68;36.45
67377;BME280;54261;46.086;6.588;2023-02-19T18:10:04;93438.56;;;12.64;36.35
67377;BME280;54261;46.086;6.588;2023-02-19T18:15:07;93400.72;;;12.38;36.31
67377;BME280;54261;46.086;6.588;2023-02-19T18:20:18;93451.31;;;12.72;35.61
67377;BME280;54261;46.086;6.588;2023-02-19T18:25:21;93463.25;;;11.14;37.59
67377;BME280;54261;46.086;6.588;2023-02-19T18:30:23;93473.91;;;11.33;37.88
67377;BME280;54261;46.086;6.588;2023-02-19T18:35:25;93463.66;;;10.22;38.78
67377;BME280;54261;46.086;6.588;2023-02-19T18:40:27;93472.44;;;10.80;38.86
67377;BME280;54261;46.086;6.588;2023-02-19T18:45:29;93476.56;;;10.19;39.22
67377;BME280;54261;46.086;6.588;2023-02-19T18:50:35;93470.63;;;11.64;37.81
67377;BME280;54261;46.086;6.588;2023-02-19T18:55:38;93476.78;;;11.09;38.68
67377;BME280;54261;46.086;6.588;2023-02-19T19:00:40;93463.06;;;11.10;38.88
67377;BME280;54261;46.086;6.588;2023-02-19T19:05:42;93460.06;;;8.66;42.81
67377;BME280;54261;46.086;6.588;2023-02-19T19:10:44;93459.72;;;9.56;41.87
67377;BME280;54261;46.086;6.588;2023-02-19T19:15:49;93453.78;;;8.81;42.71
67377;BME280;54261;46.086;6.588;2023-02-19T19:20:52;93457.53;;;9.58;41.54
67377;BME280;54261;46.086;6.588;2023-02-19T19:25:57;93458.44;;;10.30;39.76
67377;BME280;54261;46.086;6.588;2023-02-19T19:30:59;93457.50;;;11.07;38.57
67377;BME280;54261;46.086;6.588;2023-02-19T19:36:01;93463.28;;;10.81;39.26
67377;BME280;54261;46.086;6.588;2023-02-19T19:41:03;93467.19;;;10.88;38.38
67377;BME280;54261;46.086;6.588;2023-02-19T19:46:05;93465.66;;;11.15;38.55
67377;BME280;54261;46.086;6.588;2023-02-19T19:51:09;93469.78;;;9.65;39.14
67377;BME280;54261;46.086;6.588;2023-02-19T19:56:11;93481.31;;;9.16;40.25
67377;BME280;54261;46.086;6.588;2023-02-19T20:01:13;93492.06;;;8.82;40.65
67377;BME280;54261;46.086;6.588;2023-02-19T20:06:24;93475.34;;;9.25;41.38
67377;BME280;54261;46.086;6.588;2023-02-19T20:11:26;93481.09;;;8.48;41.59
67377;BME280;54261;46.086;6.588;2023-02-19T20:16:28;93480.91;;;8.99;40.64
67377;BME280;54261;46.086;6.588;2023-02-19T20:21:30;93487.22;;;9.62;40.61
67377;BME280;54261;46.086;6.588;2023-02-19T20:26:32;93433.16;;;9.11;40.67
67377;BME280;54261;46.086;6.588;2023-02-19T20:31:34;93492.44;;;10.16;40.04
67377;BME280;54261;46.086;6.588;2023-02-19T20:36:41;93480.47;;;10.08;39.54
67377;BME280;54261;46.086;6.588;2023-02-19T20:41:48;93471.34;;;10.09;39.49
67377;BME280;54261;46.086;6.588;2023-02-19T20:46:52;93458.53;;;9.19;39.33
67377;BME280;54261;46.086;6.588;2023-02-19T20:51:57;93454.47;;;9.46;39.78
67377;BME280;54261;46.086;6.588;2023-02-19T20:57:03;93455.28;;;9.66;38.56
67377;BME280;54261;46.086;6.588;2023-02-19T21:02:10;93449.50;;;9.10;39.64
67377;BME280;54261;46.086;6.588;2023-02-19T21:07:15;93446.38;;;9.02;40.04
67377;BME280;54261;46.086;6.588;2023-02-19T21:12:18;93434.41;;;7.96;41.23
67377;BME280;54261;46.086;6.588;2023-02-19T21:17:21;93445.16;;;9.14;40.11
67377;BME280;54261;46.086;6.588;2023-02-19T21:22:23;93473.19;;;9.21;39.96
67377;BME280;54261;46.086;6.588;2023-02-19T21:27:25;93477.97;;;9.00;39.85
67377;BME280;54261;46.086;6.588;2023-02-19T21:32:27;93472.69;;;9.19;39.68
67377;BME280;54261;46.086;6.588;2023-02-19T21:37:29;93500.88;;;9.17;39.48
67377;BME280;54261;46.086;6.588;2023-02-19T21:42:32;93496.84;;;8.85;39.74
67377;BME280;54261;46.086;6.588;2023-02-19T21:47:34;93512.31;;;9.47;39.06
67377;BME280;54261;46.086;6.588;2023-02-19T21:52:36;93506.03;;;8.39;40.21
67377;BME280;54261;46.086;6.588;2023-02-19T21:57:37;93518.25;;;8.50;40.81
67377;BME280;54261;46.086;6.588;2023-02-19T22:02:40;93525.66;;;7.58;42.81
67377;BME280;54261;46.086;6.588;2023-02-19T22:07:42;93537.16;;;8.24;41.45
67377;BME280;54261;46.086;6.588;2023-02-19T22:12:44;93516.00;;;8.28;41.47
67377;BME280;54261;46.086;6.588;2023-02-19T22:17:46;93522.69;;;8.30;42.00
67377;BME280;54261;46.086;6.588;2023-02-19T22:22:48;93501.16;;;8.81;40.19
67377;BME280;54261;46.086;6.588;2023-02-19T22:27:50;93525.84;;;8.38;40.78
67377;BME280;54261;46.086;6.588;2023-02-19T22:32:52;93481.31;;;8.17;40.30
67377;BME280;54261;46.086;6.588;2023-02-19T22:37:54;93525.09;;;8.27;42.05
67377;BME280;54261;46.086;6.588;2023-02-19T22:42:55;93521.16;;;7.48;41.36
67377;BME280;54261;46.086;6.588;2023-02-19T22:47:57;93530.81;;;8.10;41.37
67377;BME280;54261;46.086;6.588;2023-02-19T22:52:59;93543.28;;;7.64;41.57
67377;BME280;54261;46.086;6.588;2023-02-19T22:58:00;93547.38;;;6.06;42.96
67377;BME280;54261;46.086;6.588;2023-02-19T23:03:02;93535.97;;;6.88;43.43
67377;BME280;54261;46.086;6.588;2023-02-19T23:08:04;93549.69;;;7.73;42.58
67377;BME280;54261;46.086;6.588;2023-02-19T23:13:06;93552.84;;;5.73;46.08
67377;BME280;54261;46.086;6.588;2023-02-19T23:18:08;93540.97;;;7.36;43.36
67377;BME280;54261;46.086;6.588;2023-02-19T23:23:10;93549.34;;;6.83;43.20
67377;BME280;54261;46.086;6.588;2023-02-19T23:28:11;93541.94;;;7.72;42.23
67377;BME280;54261;46.086;6.588;2023-02-19T23:33:13;93561.03;;;8.55;41.46
67377;BME280;54261;46.086;6.588;2023-02-19T23:38:15;93560.28;;;8.44;41.23
67377;BME280;54261;46.086;6.588;2023-02-19T23:43:18;93556.78;;;8.89;40.38
67377;BME280;54261;46.086;6.588;2023-02-19T23:48:20;93554.09;;;8.54;39.91
67377;BME280;54261;46.086;6.588;2023-02-19T23:53:21;93553.72;;;7.60;42.07
67377;BME280;54261;46.086;6.588;2023-02-19T23:58:23;93562.59;;;8.16;40.28
